createdAt,value
2018-05-14T00:02:40.676Z,84.20
2018-05-14T00:05:38.558Z,85.30
2018-05-14T00:08:36.595Z,85.30
2018-05-14T00:11:33.644Z,85.60
2018-05-14T00:14:34.477Z,86.90
2018-05-14T00:17:32.473Z,86.90
2018-05-14T00:20:30.400Z,86.80
2018-05-14T00:23:28.298Z,86.20
2018-05-14T00:26:26.312Z,86.20
2018-05-14T00:29:24.206Z,87.20
2018-05-14T00:32:21.937Z,87.20
2018-05-14T00:35:19.755Z,86.80
2018-05-14T00:38:17.463Z,86.80
2018-05-14T00:41:15.251Z,86.40
2018-05-14T00:44:13.132Z,86.00
2018-05-14T00:47:10.314Z,86.10
2018-05-14T00:50:08.446Z,86.80
2018-05-14T00:53:06.294Z,86.70
2018-05-14T00:56:03.912Z,86.90
2018-05-14T00:59:01.645Z,87.50
2018-05-14T01:01:59.512Z,86.80
2018-05-14T01:04:57.033Z,87.20
2018-05-14T01:07:54.960Z,86.30
2018-05-14T01:10:52.865Z,87.00
2018-05-14T01:13:50.747Z,88.10
2018-05-14T01:16:48.409Z,88.50
2018-05-14T01:19:45.460Z,89.80
2018-05-14T01:22:43.232Z,88.60
2018-05-14T01:25:41.137Z,88.40
2018-05-14T01:28:38.973Z,88.70
2018-05-14T01:31:36.971Z,90.00
2018-05-14T01:34:34.968Z,90.90
2018-05-14T01:37:32.932Z,91.00
2018-05-14T01:40:30.884Z,91.20
2018-05-14T01:43:28.864Z,91.50
2018-05-14T01:46:26.781Z,92.10
2018-05-14T01:49:24.832Z,93.40
2018-05-14T01:52:22.838Z,93.40
2018-05-14T01:55:20.670Z,93.70
2018-05-14T01:58:18.514Z,93.30
2018-05-14T02:01:16.521Z,93.60
2018-05-14T02:04:14.526Z,93.60
2018-05-14T02:07:13.163Z,94.00
2018-05-14T02:10:10.945Z,94.00
2018-05-14T02:13:08.665Z,94.20
2018-05-14T02:16:06.585Z,94.60
2018-05-14T02:19:04.659Z,94.10
2018-05-14T02:22:02.394Z,94.10
2018-05-14T02:25:00.376Z,94.60
2018-05-14T02:27:57.461Z,96.00
2018-05-14T02:30:56.418Z,96.20
2018-05-14T02:33:53.544Z,96.30
2018-05-14T02:36:52.670Z,97.50
2018-05-14T02:39:50.523Z,97.50
2018-05-14T02:42:48.634Z,97.90
2018-05-14T02:45:46.584Z,97.90
2018-05-14T02:48:44.553Z,98.10
2018-05-14T02:51:42.544Z,97.50
2018-05-14T02:54:40.517Z,97.80
2018-05-14T02:57:37.643Z,97.40
2018-05-14T03:00:35.435Z,97.10
2018-05-14T03:03:33.493Z,95.60
2018-05-14T03:06:32.009Z,95.70
2018-05-14T03:09:30.561Z,95.70
2018-05-14T03:12:28.655Z,95.70
2018-05-14T03:15:26.417Z,95.70
2018-05-14T03:18:23.580Z,95.80
2018-05-14T03:21:22.136Z,95.40
2018-05-14T03:24:20.163Z,95.40
2018-05-14T03:29:47.688Z,94.90
2018-05-14T03:32:45.202Z,95.40
2018-05-14T03:35:42.809Z,94.70
2018-05-14T03:38:40.567Z,94.50
2018-05-14T03:41:38.559Z,94.60
2018-05-14T03:44:36.935Z,93.20
2018-05-14T03:47:34.807Z,93.20
2018-05-14T03:50:32.781Z,93.00
2018-05-14T03:53:30.583Z,92.40
2018-05-14T03:56:28.577Z,92.40
2018-05-14T03:59:38.419Z,92.10
2018-05-14T04:02:48.421Z,91.60
2018-05-14T04:06:07.421Z,91.60
2018-05-14T04:09:06.095Z,91.60
2018-05-14T04:12:03.988Z,91.50
2018-05-14T04:15:02.796Z,91.30
2018-05-14T04:18:00.605Z,91.20
2018-05-14T04:20:58.400Z,91.10
2018-05-14T04:23:57.192Z,90.90
2018-05-14T04:26:56.075Z,90.70
2018-05-14T04:29:53.907Z,90.70
2018-05-14T04:32:52.719Z,89.70
2018-05-14T04:35:50.612Z,89.70
2018-05-14T04:38:49.906Z,88.10
2018-05-14T04:41:47.977Z,88.00
2018-05-14T04:44:45.952Z,86.60
2018-05-14T04:47:43.534Z,87.80
2018-05-14T04:50:41.377Z,87.10
2018-05-14T04:53:38.764Z,88.40
2018-05-14T04:56:36.529Z,87.80
2018-05-14T04:59:34.159Z,86.90
2018-05-14T05:02:31.874Z,86.20
2018-05-14T05:05:29.688Z,85.00
2018-05-14T05:08:27.286Z,85.60
2018-05-14T05:11:25.109Z,83.50
2018-05-14T05:14:22.711Z,83.00
2018-05-14T05:17:20.861Z,82.80
2018-05-14T05:20:17.880Z,82.10
2018-05-14T05:23:15.817Z,81.60
2018-05-14T05:26:13.767Z,81.60
2018-05-14T05:29:11.498Z,80.70
2018-05-14T05:32:09.654Z,80.70
2018-05-14T05:35:07.641Z,80.70
2018-05-14T05:38:05.254Z,79.80
2018-05-14T05:41:03.308Z,78.80
2018-05-14T05:44:01.169Z,78.70
2018-05-14T05:46:58.812Z,78.50
2018-05-14T05:49:56.624Z,77.90
2018-05-14T05:52:54.812Z,77.60
2018-05-14T05:55:52.714Z,76.10
2018-05-14T05:58:50.589Z,75.40
2018-05-14T06:01:48.260Z,74.80
2018-05-14T06:04:46.883Z,73.40
2018-05-14T06:07:44.928Z,72.20
2018-05-14T06:10:42.693Z,72.40
2018-05-14T06:13:40.740Z,70.10
2018-05-14T06:16:38.223Z,70.00
2018-05-14T06:19:36.103Z,68.80
2018-05-14T06:22:34.130Z,68.40
2018-05-14T06:25:31.699Z,67.40
2018-05-14T06:28:29.685Z,65.20
2018-05-14T06:31:27.504Z,63.80
2018-05-14T06:34:25.773Z,64.20
2018-05-14T06:37:23.843Z,62.70
2018-05-14T06:40:21.646Z,59.50
2018-05-14T06:43:19.505Z,59.50
2018-05-14T06:46:17.586Z,49.40
2018-05-14T06:49:15.547Z,49.30
2018-05-14T06:52:13.407Z,44.50
2018-05-14T06:55:12.193Z,39.40
2018-05-14T06:58:10.178Z,39.30
2018-05-14T07:01:07.994Z,40.50
2018-05-14T07:04:05.999Z,39.00
2018-05-14T07:07:03.896Z,37.70
2018-05-14T07:10:01.487Z,36.40
2018-05-14T07:12:59.398Z,36.70
2018-05-14T07:15:57.203Z,37.50
2018-05-14T07:18:55.876Z,37.50
2018-05-14T07:21:53.720Z,36.30
2018-05-14T07:24:51.526Z,36.00
2018-05-14T07:27:49.367Z,36.00
2018-05-14T07:30:48.992Z,35.30
2018-05-14T07:33:46.905Z,34.40
2018-05-14T07:36:44.426Z,35.10
2018-05-14T07:39:42.538Z,31.60
2018-05-14T07:42:40.430Z,33.60
2018-05-14T07:45:38.270Z,33.30
2018-05-14T07:48:35.914Z,32.60
2018-05-14T07:51:33.675Z,32.40
2018-05-14T07:54:31.689Z,32.00
2018-05-14T07:57:29.311Z,31.30
2018-05-14T08:00:27.866Z,31.00
2018-05-14T08:03:26.102Z,31.60
2018-05-14T08:06:23.478Z,30.10
2018-05-14T08:09:21.549Z,29.40
2018-05-14T08:12:19.335Z,29.60
2018-05-14T08:15:18.255Z,29.20
2018-05-14T08:18:16.579Z,29.20
2018-05-14T08:21:13.911Z,30.00
2018-05-14T08:24:11.774Z,30.90
2018-05-14T08:27:11.080Z,30.00
2018-05-14T08:30:08.372Z,30.00
2018-05-14T08:33:05.634Z,29.50
2018-05-14T08:36:03.776Z,29.40
2018-05-14T08:39:01.812Z,29.60
2018-05-14T08:41:59.327Z,29.40
2018-05-14T08:44:57.558Z,29.80
2018-05-14T08:47:55.659Z,29.80
2018-05-14T08:50:53.170Z,29.10
2018-05-14T08:53:50.988Z,29.50
2018-05-14T08:56:48.858Z,29.90
2018-05-14T08:59:47.816Z,29.90
2018-05-14T09:02:45.717Z,30.10
2018-05-14T09:05:43.689Z,30.40
2018-05-14T09:08:41.817Z,30.00
2018-05-14T09:11:39.551Z,30.00
2018-05-14T09:14:37.607Z,30.40
2018-05-14T09:17:35.436Z,30.10
2018-05-14T09:20:33.326Z,29.60
2018-05-14T09:23:31.218Z,29.20
2018-05-14T09:26:29.058Z,29.30
2018-05-14T09:29:26.786Z,29.00
2018-05-14T09:32:24.654Z,28.50
2018-05-14T09:35:22.375Z,28.70
2018-05-14T09:38:20.336Z,29.00
2018-05-14T09:41:18.065Z,28.70
2018-05-14T09:44:15.758Z,28.40
2018-05-14T09:47:13.187Z,28.60
2018-05-14T09:50:11.036Z,28.70
2018-05-14T09:53:08.720Z,28.60
2018-05-14T09:56:06.765Z,29.20
2018-05-14T09:59:04.460Z,27.80
2018-05-14T10:02:02.546Z,28.30
2018-05-14T10:05:00.452Z,28.40
2018-05-14T10:07:58.444Z,28.30
2018-05-14T10:10:56.010Z,28.40
2018-05-14T10:13:53.905Z,28.20
2018-05-14T10:16:52.788Z,28.10
2018-05-14T10:19:50.604Z,28.00
2018-05-14T10:22:48.517Z,28.30
2018-05-14T10:25:46.521Z,28.40
2018-05-14T10:28:43.951Z,27.90
2018-05-14T10:31:41.882Z,27.70
2018-05-14T10:34:39.860Z,27.80
2018-05-14T10:37:37.717Z,26.70
2018-05-14T10:40:36.374Z,26.70
2018-05-14T10:43:35.005Z,28.10
2018-05-14T10:46:32.058Z,28.10
2018-05-14T10:49:30.067Z,27.70
2018-05-14T10:52:27.209Z,27.60
2018-05-14T10:55:26.052Z,27.30
2018-05-14T10:58:23.665Z,27.00
2018-05-14T11:01:22.354Z,27.40
2018-05-14T11:04:19.957Z,27.40
2018-05-14T11:07:17.123Z,28.10
2018-05-14T11:10:14.755Z,28.10
2018-05-14T11:13:12.501Z,26.70
2018-05-14T11:16:10.395Z,27.10
2018-05-14T11:19:08.372Z,26.90
2018-05-14T11:22:06.189Z,27.10
2018-05-14T11:25:03.317Z,27.50
2018-05-14T11:28:01.416Z,26.80
2018-05-14T11:30:59.277Z,26.80
2018-05-14T11:33:57.474Z,27.20
2018-05-14T11:36:55.319Z,26.30
2018-05-14T11:39:53.128Z,26.40
2018-05-14T11:42:51.053Z,27.00
2018-05-14T11:45:48.946Z,26.50
2018-05-14T11:48:46.908Z,26.50
2018-05-14T11:51:44.525Z,26.60
2018-05-14T11:54:42.290Z,26.50
2018-05-14T11:57:39.940Z,26.80
2018-05-14T12:00:37.838Z,27.10
2018-05-14T12:03:34.852Z,26.80
2018-05-14T12:06:33.699Z,27.20
2018-05-14T12:09:31.906Z,26.90
2018-05-14T12:12:30.078Z,27.00
2018-05-14T12:15:28.080Z,27.20
2018-05-14T12:18:26.992Z,27.10
2018-05-14T12:21:24.799Z,26.80
2018-05-14T12:24:22.713Z,26.80
2018-05-14T12:27:20.984Z,26.70
2018-05-14T12:30:18.148Z,27.10
2018-05-14T12:33:16.057Z,27.80
2018-05-14T12:36:13.135Z,27.90
2018-05-14T12:39:11.065Z,27.00
2018-05-14T12:42:08.871Z,26.60
2018-05-14T12:45:06.842Z,26.60
2018-05-14T12:48:04.477Z,26.70
2018-05-14T12:51:03.301Z,25.90
2018-05-14T12:54:01.773Z,25.90
2018-05-14T12:56:59.439Z,25.70
2018-05-14T12:59:58.444Z,25.20
2018-05-14T13:02:56.425Z,25.20
2018-05-14T13:05:55.032Z,25.50
2018-05-14T13:08:52.928Z,25.70
2018-05-14T13:11:50.473Z,25.90
2018-05-14T13:14:48.340Z,25.50
2018-05-14T13:17:47.581Z,25.70
2018-05-14T13:20:47.050Z,25.40
2018-05-14T13:23:44.838Z,25.40
2018-05-14T13:26:42.328Z,25.30
2018-05-14T13:29:40.986Z,24.70
2018-05-14T13:32:38.749Z,25.70
2018-05-14T13:35:35.757Z,26.10
2018-05-14T13:38:33.662Z,25.90
2018-05-14T13:41:31.600Z,26.40
2018-05-14T13:44:28.770Z,27.50
2018-05-14T13:47:26.615Z,27.10
2018-05-14T13:50:24.415Z,27.00
2018-05-14T13:53:22.340Z,27.30
2018-05-14T13:56:22.093Z,27.20
2018-05-14T13:59:20.299Z,27.20
2018-05-14T14:02:17.624Z,27.40
2018-05-14T14:05:15.479Z,28.20
2018-05-14T14:08:12.566Z,28.60
2018-05-14T14:11:09.623Z,28.70
2018-05-14T14:14:07.303Z,28.50
2018-05-14T14:17:05.126Z,29.10
2018-05-14T14:20:02.841Z,29.30
2018-05-14T14:23:00.702Z,28.50
2018-05-14T14:25:58.471Z,28.10
2018-05-14T14:28:56.307Z,28.50
2018-05-14T14:31:55.092Z,29.20
2018-05-14T14:34:52.824Z,29.00
2018-05-14T14:37:50.625Z,29.40
2018-05-14T14:40:48.529Z,30.00
2018-05-14T14:43:46.261Z,30.00
2018-05-14T14:46:44.083Z,30.50
2018-05-14T14:49:42.046Z,30.50
2018-05-14T14:52:40.030Z,31.50
2018-05-14T14:55:38.968Z,30.70
2018-05-14T14:58:36.866Z,30.10
2018-05-14T15:01:34.743Z,29.90
2018-05-14T15:04:33.557Z,30.00
2018-05-14T15:07:31.328Z,30.30
2018-05-14T15:10:30.069Z,30.30
2018-05-14T15:13:28.971Z,31.80
2018-05-14T15:16:26.444Z,31.60
2018-05-14T15:19:24.316Z,32.00
2018-05-14T15:22:22.319Z,31.90
2018-05-14T15:25:20.126Z,33.20
2018-05-14T15:28:18.001Z,32.70
2018-05-14T15:31:15.764Z,33.50
2018-05-14T15:34:13.575Z,33.70
2018-05-14T15:37:12.393Z,33.60
2018-05-14T15:40:10.262Z,34.00
2018-05-14T15:43:08.056Z,34.80
2018-05-14T15:46:06.021Z,34.20
2018-05-14T15:49:03.568Z,34.20
2018-05-14T15:52:01.072Z,34.70
2018-05-14T15:54:58.872Z,34.00
2018-05-14T15:57:56.566Z,34.00
2018-05-14T16:00:54.456Z,35.00
2018-05-14T16:03:53.418Z,35.20
2018-05-14T16:06:51.434Z,35.20
2018-05-14T16:09:49.441Z,36.20
2018-05-14T16:12:47.284Z,36.20
2018-05-14T16:15:45.241Z,36.70
2018-05-14T16:18:44.170Z,36.40
2018-05-14T16:21:41.828Z,36.00
2018-05-14T16:24:39.841Z,35.90
2018-05-14T16:27:37.840Z,36.10
2018-05-14T16:30:35.465Z,36.10
2018-05-14T16:33:33.425Z,36.50
2018-05-14T16:36:31.029Z,36.20
2018-05-14T16:39:28.766Z,36.20
2018-05-14T16:42:27.577Z,36.10
2018-05-14T16:45:25.198Z,37.00
2018-05-14T16:48:22.959Z,37.10
2018-05-14T16:51:20.487Z,36.90
2018-05-14T16:54:18.210Z,37.00
2018-05-14T16:57:16.488Z,37.10
2018-05-14T17:00:14.371Z,38.30
2018-05-14T17:03:12.067Z,38.30
2018-05-14T17:06:09.825Z,38.40
2018-05-14T17:09:07.366Z,38.80
2018-05-14T17:12:05.006Z,39.20
2018-05-14T17:15:02.831Z,39.70
2018-05-14T17:18:00.566Z,40.10
2018-05-14T17:20:58.414Z,40.80
2018-05-14T17:23:58.096Z,41.30
2018-05-14T17:26:56.813Z,41.30
2018-05-14T17:29:54.596Z,41.60
2018-05-14T17:32:52.329Z,41.80
2018-05-14T17:35:50.070Z,41.80
2018-05-14T17:38:47.108Z,42.00
2018-05-14T17:41:45.076Z,42.20
2018-05-14T17:44:42.886Z,42.40
2018-05-14T17:47:41.000Z,42.40
2018-05-14T17:50:38.095Z,42.90
2018-05-14T17:53:36.023Z,43.10
2018-05-14T17:56:34.028Z,43.20
2018-05-14T17:59:31.734Z,43.30
2018-05-14T18:02:29.729Z,43.60
2018-05-14T18:05:27.521Z,43.80
2018-05-14T18:08:25.295Z,44.30
2018-05-14T18:11:23.101Z,44.30
2018-05-14T18:14:20.717Z,44.60
2018-05-14T18:17:19.417Z,45.30
2018-05-14T18:20:24.155Z,45.40
2018-05-14T18:23:27.920Z,45.40
2018-05-14T18:26:26.010Z,45.60
2018-05-14T18:29:29.869Z,45.90
2018-05-14T18:32:27.880Z,46.20
2018-05-14T18:35:27.809Z,46.00
2018-05-14T18:38:25.797Z,45.60
2018-05-14T18:41:23.446Z,45.10
2018-05-14T18:44:22.020Z,44.90
2018-05-14T18:47:19.394Z,44.70
2018-05-14T18:50:17.917Z,44.90
2018-05-14T18:53:15.859Z,44.90
2018-05-14T18:56:13.908Z,45.40
2018-05-14T18:59:11.896Z,46.10
2018-05-14T19:02:09.491Z,46.60
2018-05-14T19:05:07.239Z,47.20
2018-05-14T19:08:04.449Z,48.10
2018-05-14T19:11:08.442Z,48.20
2018-05-14T19:14:07.386Z,48.70
2018-05-14T19:17:11.090Z,48.90
2018-05-14T19:20:08.989Z,49.40
2018-05-14T19:23:12.486Z,49.90
2018-05-14T19:26:10.378Z,50.10
2018-05-14T19:29:14.383Z,51.30
2018-05-14T19:32:11.980Z,51.70
2018-05-14T19:35:14.983Z,51.50
2018-05-14T19:38:12.894Z,51.80
2018-05-14T19:41:10.810Z,52.80
2018-05-14T19:44:08.539Z,52.80
2018-05-14T19:47:06.488Z,53.20
2018-05-14T19:50:04.357Z,53.60
2018-05-14T19:53:02.188Z,54.30
2018-05-14T19:55:59.978Z,54.30
2018-05-14T19:58:58.010Z,54.40
2018-05-14T20:01:55.992Z,55.00
2018-05-14T20:04:53.854Z,55.30
2018-05-14T20:07:51.563Z,55.50
2018-05-14T20:10:49.520Z,55.60
2018-05-14T20:13:47.304Z,55.90
2018-05-14T20:16:45.167Z,56.50
2018-05-14T20:19:42.779Z,56.60
2018-05-14T20:22:41.331Z,56.80
2018-05-14T20:25:39.244Z,57.00
2018-05-14T20:28:36.979Z,57.20
2018-05-14T20:31:34.695Z,57.40
2018-05-14T20:34:32.620Z,57.50
2018-05-14T20:37:30.425Z,57.90
2018-05-14T20:40:28.089Z,58.10
2018-05-14T20:43:26.116Z,58.30
2018-05-14T20:46:24.282Z,58.40
2018-05-14T20:49:21.828Z,58.70
2018-05-14T20:52:19.557Z,58.80
2018-05-14T20:55:17.282Z,59.20
2018-05-14T20:58:15.012Z,59.60
2018-05-14T21:01:12.059Z,59.90
2018-05-14T21:04:09.055Z,60.50
2018-05-14T21:07:06.981Z,61.20
2018-05-14T21:10:04.927Z,61.80
2018-05-14T21:13:02.744Z,62.70
2018-05-14T21:15:59.849Z,63.30
2018-05-14T21:18:56.831Z,64.10
2018-05-14T21:21:54.009Z,65.10
2018-05-14T21:24:51.775Z,65.80
2018-05-14T21:27:49.585Z,65.80
2018-05-14T21:30:47.280Z,66.30
2018-05-14T21:33:45.129Z,66.80
2018-05-14T21:36:43.025Z,67.00
2018-05-14T21:39:40.936Z,67.90
2018-05-14T21:42:38.537Z,68.70
2018-05-14T21:45:36.248Z,69.50
2018-05-14T21:48:35.001Z,70.60
2018-05-14T21:51:32.907Z,70.50
2018-05-14T21:54:30.644Z,69.60
2018-05-14T21:57:28.151Z,69.50
2018-05-14T22:00:25.979Z,69.40
2018-05-14T22:03:23.176Z,70.00
2018-05-14T22:06:22.136Z,69.80
2018-05-14T22:09:20.022Z,70.30
2018-05-14T22:12:17.998Z,69.70
2018-05-14T22:15:15.768Z,69.70
2018-05-14T22:18:13.472Z,69.20
2018-05-14T22:21:11.292Z,69.70
2018-05-14T22:24:09.219Z,69.20
2018-05-14T22:27:07.055Z,68.40
2018-05-14T22:30:04.937Z,68.80
2018-05-14T22:33:02.856Z,69.10
2018-05-14T22:36:00.349Z,69.00
2018-05-14T22:38:58.867Z,68.70
2018-05-14T22:41:56.283Z,69.30
2018-05-14T22:44:54.018Z,69.20
2018-05-14T22:47:51.493Z,70.30
2018-05-14T22:50:49.326Z,69.70
2018-05-14T22:53:47.763Z,72.20
2018-05-14T22:56:45.447Z,72.10
2018-05-14T22:59:43.192Z,72.10
2018-05-14T23:02:41.059Z,73.20
2018-05-14T23:05:38.873Z,71.60
2018-05-14T23:08:37.637Z,73.30
2018-05-14T23:11:35.387Z,73.00
2018-05-14T23:14:32.468Z,73.90
2018-05-14T23:17:30.448Z,73.70
2018-05-14T23:20:27.631Z,75.70
2018-05-14T23:23:25.382Z,81.20
2018-05-14T23:26:23.256Z,82.80
2018-05-14T23:29:22.277Z,85.00
2018-05-14T23:32:20.122Z,86.20
2018-05-14T23:35:18.020Z,87.00
2018-05-14T23:38:15.929Z,86.20
2018-05-14T23:41:13.033Z,86.00
2018-05-14T23:44:10.964Z,86.20
2018-05-14T23:47:08.830Z,85.70
2018-05-14T23:50:07.059Z,86.00
2018-05-14T23:53:04.964Z,86.10
2018-05-14T23:56:03.710Z,86.80
2018-05-14T23:59:01.768Z,86.70
